sensor_id;sensor_type;location;lat;lon;timestamp;P1;durP1;ratioP1;P2;durP2;ratioP2
1585;SDS011;786;48.718;9.514;2023-03-03T00:00:51;46.35;;;26.20;;
1585;SDS011;786;48.718;9.514;2023-03-03T00:03:19;39.05;;;23.40;;
1585;SDS011;786;48.718;9.514;2023-03-03T00:05:46;44.75;;;24.50;;
1585;SDS011;786;48.718;9.514;2023-03-03T00:08:13;43.90;;;24.60;;
1585;SDS011;786;48.718;9.514;2023-03-03T00:10:40;44.63;;;23.58;;
1585;SDS011;786;48.718;9.514;2023-03-03T00:13:11;43.67;;;25.98;;
1585;SDS011;786;48.718;9.514;2023-03-03T00:15:38;44.50;;;23.67;;
1585;SDS011;786;48.718;9.514;2023-03-03T00:18:10;42.45;;;23.88;;
1585;SDS011;786;48.718;9.514;2023-03-03T00:20:46;44.75;;;23.10;;
1585;SDS011;786;48.718;9.514;2023-03-03T00:23:15;41.42;;;21.45;;
1585;SDS011;786;48.718;9.514;2023-03-03T00:25:45;46.00;;;23.92;;
1585;SDS011;786;48.718;9.514;2023-03-03T00:28:19;43.65;;;23.00;;
1585;SDS011;786;48.718;9.514;2023-03-03T00:30:49;38.85;;;21.30;;
1585;SDS011;786;48.718;9.514;2023-03-03T00:33:21;45.00;;;23.45;;
1585;SDS011;786;48.718;9.514;2023-03-03T00:35:53;43.55;;;24.23;;
1585;SDS011;786;48.718;9.514;2023-03-03T00:38:20;44.67;;;25.92;;
1585;SDS011;786;48.718;9.514;2023-03-03T00:40:47;45.20;;;26.33;;
1585;SDS011;786;48.718;9.514;2023-03-03T00:43:16;47.13;;;26.65;;
1585;SDS011;786;48.718;9.514;2023-03-03T00:45:44;44.40;;;25.00;;
1585;SDS011;786;48.718;9.514;2023-03-03T00:48:20;43.50;;;23.73;;
1585;SDS011;786;48.718;9.514;2023-03-03T00:50:48;43.10;;;24.25;;
1585;SDS011;786;48.718;9.514;2023-03-03T00:53:16;43.45;;;21.65;;
1585;SDS011;786;48.718;9.514;2023-03-03T00:55:43;43.55;;;23.17;;
1585;SDS011;786;48.718;9.514;2023-03-03T00:58:10;45.47;;;26.15;;
1585;SDS011;786;48.718;9.514;2023-03-03T01:00:37;43.42;;;23.85;;
1585;SDS011;786;48.718;9.514;2023-03-03T01:03:05;47.00;;;25.38;;
1585;SDS011;786;48.718;9.514;2023-03-03T01:05:33;43.17;;;22.90;;
1585;SDS011;786;48.718;9.514;2023-03-03T01:08:00;43.70;;;22.27;;
1585;SDS011;786;48.718;9.514;2023-03-03T01:10:27;42.25;;;23.10;;
1585;SDS011;786;48.718;9.514;2023-03-03T01:12:55;41.95;;;22.98;;
1585;SDS011;786;48.718;9.514;2023-03-03T01:15:22;47.38;;;24.63;;
1585;SDS011;786;48.718;9.514;2023-03-03T01:17:49;46.80;;;24.17;;
1585;SDS011;786;48.718;9.514;2023-03-03T01:20:15;49.92;;;27.27;;
1585;SDS011;786;48.718;9.514;2023-03-03T01:22:43;48.13;;;26.95;;
1585;SDS011;786;48.718;9.514;2023-03-03T01:25:10;43.13;;;23.48;;
1585;SDS011;786;48.718;9.514;2023-03-03T01:27:36;42.67;;;22.55;;
1585;SDS011;786;48.718;9.514;2023-03-03T01:30:03;45.08;;;26.27;;
1585;SDS011;786;48.718;9.514;2023-03-03T01:32:31;44.10;;;22.05;;
1585;SDS011;786;48.718;9.514;2023-03-03T01:34:57;43.40;;;25.85;;
1585;SDS011;786;48.718;9.514;2023-03-03T01:37:24;46.88;;;26.40;;
1585;SDS011;786;48.718;9.514;2023-03-03T01:39:51;48.72;;;24.95;;
1585;SDS011;786;48.718;9.514;2023-03-03T01:42:19;51.78;;;25.60;;
1585;SDS011;786;48.718;9.514;2023-03-03T01:44:46;47.55;;;24.67;;
1585;SDS011;786;48.718;9.514;2023-03-03T01:47:13;50.22;;;25.95;;
1585;SDS011;786;48.718;9.514;2023-03-03T01:49:41;51.60;;;25.73;;
1585;SDS011;786;48.718;9.514;2023-03-03T01:52:11;55.45;;;28.45;;
1585;SDS011;786;48.718;9.514;2023-03-03T01:54:41;56.50;;;26.77;;
1585;SDS011;786;48.718;9.514;2023-03-03T01:57:11;53.50;;;27.05;;
1585;SDS011;786;48.718;9.514;2023-03-03T01:59:40;50.30;;;24.60;;
1585;SDS011;786;48.718;9.514;2023-03-03T02:02:08;51.63;;;25.17;;
1585;SDS011;786;48.718;9.514;2023-03-03T02:04:35;49.40;;;25.83;;
1585;SDS011;786;48.718;9.514;2023-03-03T02:07:02;51.55;;;27.13;;
1585;SDS011;786;48.718;9.514;2023-03-03T02:09:36;47.58;;;25.10;;
1585;SDS011;786;48.718;9.514;2023-03-03T02:12:08;47.45;;;25.13;;
1585;SDS011;786;48.718;9.514;2023-03-03T02:14:38;50.00;;;26.25;;
1585;SDS011;786;48.718;9.514;2023-03-03T02:17:04;42.03;;;25.13;;
1585;SDS011;786;48.718;9.514;2023-03-03T02:19:32;47.50;;;24.27;;
1585;SDS011;786;48.718;9.514;2023-03-03T02:22:01;51.40;;;26.70;;
1585;SDS011;786;48.718;9.514;2023-03-03T02:24:29;46.97;;;27.60;;
1585;SDS011;786;48.718;9.514;2023-03-03T02:26:59;55.22;;;27.60;;
1585;SDS011;786;48.718;9.514;2023-03-03T02:29:26;45.08;;;22.88;;
1585;SDS011;786;48.718;9.514;2023-03-03T02:31:52;44.75;;;24.90;;
1585;SDS011;786;48.718;9.514;2023-03-03T02:34:18;48.50;;;25.42;;
1585;SDS011;786;48.718;9.514;2023-03-03T02:36:45;45.08;;;24.77;;
1585;SDS011;786;48.718;9.514;2023-03-03T02:39:13;48.40;;;27.08;;
1585;SDS011;786;48.718;9.514;2023-03-03T02:41:43;44.67;;;23.20;;
1585;SDS011;786;48.718;9.514;2023-03-03T02:44:14;46.92;;;25.77;;
1585;SDS011;786;48.718;9.514;2023-03-03T02:46:43;41.47;;;22.55;;
1585;SDS011;786;48.718;9.514;2023-03-03T02:49:12;49.10;;;26.58;;
1585;SDS011;786;48.718;9.514;2023-03-03T02:51:39;40.50;;;22.48;;
1585;SDS011;786;48.718;9.514;2023-03-03T02:54:07;48.85;;;27.73;;
1585;SDS011;786;48.718;9.514;2023-03-03T02:56:34;46.50;;;24.00;;
1585;SDS011;786;48.718;9.514;2023-03-03T02:59:00;42.65;;;24.27;;
1585;SDS011;786;48.718;9.514;2023-03-03T03:01:28;44.40;;;24.40;;
1585;SDS011;786;48.718;9.514;2023-03-03T03:03:56;48.05;;;23.90;;
1585;SDS011;786;48.718;9.514;2023-03-03T03:06:22;46.38;;;26.27;;
1585;SDS011;786;48.718;9.514;2023-03-03T03:08:49;42.05;;;23.30;;
1585;SDS011;786;48.718;9.514;2023-03-03T03:11:15;47.75;;;24.48;;
1585;SDS011;786;48.718;9.514;2023-03-03T03:13:41;42.78;;;24.23;;
1585;SDS011;786;48.718;9.514;2023-03-03T03:16:08;42.17;;;23.45;;
1585;SDS011;786;48.718;9.514;2023-03-03T03:18:36;46.55;;;25.90;;
1585;SDS011;786;48.718;9.514;2023-03-03T03:21:07;41.83;;;24.13;;
1585;SDS011;786;48.718;9.514;2023-03-03T03:23:34;46.70;;;25.92;;
1585;SDS011;786;48.718;9.514;2023-03-03T03:26:01;41.85;;;23.20;;
1585;SDS011;786;48.718;9.514;2023-03-03T03:28:27;47.13;;;24.85;;
1585;SDS011;786;48.718;9.514;2023-03-03T03:30:53;45.13;;;24.05;;
1585;SDS011;786;48.718;9.514;2023-03-03T03:33:20;46.28;;;23.45;;
1585;SDS011;786;48.718;9.514;2023-03-03T03:35:48;41.75;;;21.95;;
1585;SDS011;786;48.718;9.514;2023-03-03T03:38:15;40.28;;;24.33;;
1585;SDS011;786;48.718;9.514;2023-03-03T03:40:42;36.88;;;21.55;;
1585;SDS011;786;48.718;9.514;2023-03-03T03:43:08;44.85;;;23.23;;
1585;SDS011;786;48.718;9.514;2023-03-03T03:45:35;43.33;;;25.25;;
1585;SDS011;786;48.718;9.514;2023-03-03T03:48:01;45.05;;;24.98;;
1585;SDS011;786;48.718;9.514;2023-03-03T03:50:28;40.28;;;22.23;;
1585;SDS011;786;48.718;9.514;2023-03-03T03:52:56;41.38;;;23.52;;
1585;SDS011;786;48.718;9.514;2023-03-03T03:55:22;43.63;;;22.52;;
1585;SDS011;786;48.718;9.514;2023-03-03T03:57:48;41.58;;;24.77;;
1585;SDS011;786;48.718;9.514;2023-03-03T04:00:15;39.92;;;22.75;;
1585;SDS011;786;48.718;9.514;2023-03-03T04:02:42;38.65;;;22.25;;
1585;SDS011;786;48.718;9.514;2023-03-03T04:05:08;43.75;;;24.23;;
1585;SDS011;786;48.718;9.514;2023-03-03T04:07:35;41.53;;;22.55;;
1585;SDS011;786;48.718;9.514;2023-03-03T04:10:03;44.40;;;24.23;;
1585;SDS011;786;48.718;9.514;2023-03-03T04:12:29;43.80;;;23.73;;
1585;SDS011;786;48.718;9.514;2023-03-03T04:15:02;40.95;;;23.45;;
1585;SDS011;786;48.718;9.514;2023-03-03T04:17:29;49.70;;;26.65;;
1585;SDS011;786;48.718;9.514;2023-03-03T04:19:55;49.22;;;24.92;;
1585;SDS011;786;48.718;9.514;2023-03-03T04:22:21;41.83;;;21.92;;
1585;SDS011;786;48.718;9.514;2023-03-03T04:24:48;47.10;;;24.35;;
1585;SDS011;786;48.718;9.514;2023-03-03T04:27:15;39.40;;;20.73;;
1585;SDS011;786;48.718;9.514;2023-03-03T04:29:42;38.97;;;24.00;;
1585;SDS011;786;48.718;9.514;2023-03-03T04:32:08;38.13;;;23.10;;
1585;SDS011;786;48.718;9.514;2023-03-03T04:34:35;43.92;;;22.95;;
1585;SDS011;786;48.718;9.514;2023-03-03T04:37:01;42.35;;;23.15;;
1585;SDS011;786;48.718;9.514;2023-03-03T04:39:28;38.72;;;21.60;;
1585;SDS011;786;48.718;9.514;2023-03-03T04:41:54;40.08;;;22.90;;
1585;SDS011;786;48.718;9.514;2023-03-03T04:44:22;41.05;;;24.13;;
1585;SDS011;786;48.718;9.514;2023-03-03T04:46:48;40.15;;;22.75;;
1585;SDS011;786;48.718;9.514;2023-03-03T04:49:14;39.97;;;22.83;;
1585;SDS011;786;48.718;9.514;2023-03-03T04:51:41;40.67;;;21.73;;
1585;SDS011;786;48.718;9.514;2023-03-03T04:54:07;40.92;;;25.80;;
1585;SDS011;786;48.718;9.514;2023-03-03T04:56:33;41.60;;;23.80;;
1585;SDS011;786;48.718;9.514;2023-03-03T04:59:00;38.53;;;22.95;;
1585;SDS011;786;48.718;9.514;2023-03-03T05:01:28;41.90;;;22.85;;
1585;SDS011;786;48.718;9.514;2023-03-03T05:03:54;40.22;;;23.00;;
1585;SDS011;786;48.718;9.514;2023-03-03T05:06:20;42.97;;;22.02;;
1585;SDS011;786;48.718;9.514;2023-03-03T05:08:47;46.00;;;23.40;;
1585;SDS011;786;48.718;9.514;2023-03-03T05:11:13;40.40;;;23.73;;
1585;SDS011;786;48.718;9.514;2023-03-03T05:13:40;45.28;;;26.63;;
1585;SDS011;786;48.718;9.514;2023-03-03T05:16:06;42.80;;;23.45;;
1585;SDS011;786;48.718;9.514;2023-03-03T05:18:34;45.85;;;23.42;;
1585;SDS011;786;48.718;9.514;2023-03-03T05:21:01;42.08;;;22.58;;
1585;SDS011;786;48.718;9.514;2023-03-03T05:23:27;42.10;;;21.90;;
1585;SDS011;786;48.718;9.514;2023-03-03T05:25:53;39.63;;;21.95;;
1585;SDS011;786;48.718;9.514;2023-03-03T05:28:20;43.35;;;24.02;;
1585;SDS011;786;48.718;9.514;2023-03-03T05:30:46;42.85;;;23.38;;
1585;SDS011;786;48.718;9.514;2023-03-03T05:33:13;38.40;;;20.83;;
1585;SDS011;786;48.718;9.514;2023-03-03T05:35:42;38.30;;;21.98;;
1585;SDS011;786;48.718;9.514;2023-03-03T05:38:09;40.78;;;24.50;;
1585;SDS011;786;48.718;9.514;2023-03-03T05:40:36;41.78;;;22.30;;
1585;SDS011;786;48.718;9.514;2023-03-03T05:43:02;42.45;;;26.17;;
1585;SDS011;786;48.718;9.514;2023-03-03T05:45:29;41.00;;;24.08;;
1585;SDS011;786;48.718;9.514;2023-03-03T05:47:55;40.97;;;22.63;;
1585;SDS011;786;48.718;9.514;2023-03-03T05:50:22;42.92;;;24.52;;
1585;SDS011;786;48.718;9.514;2023-03-03T05:52:50;45.83;;;27.35;;
1585;SDS011;786;48.718;9.514;2023-03-03T05:55:17;45.25;;;25.35;;
1585;SDS011;786;48.718;9.514;2023-03-03T05:57:43;44.80;;;24.98;;
1585;SDS011;786;48.718;9.514;2023-03-03T06:00:10;40.72;;;23.08;;
1585;SDS011;786;48.718;9.514;2023-03-03T06:02:38;45.92;;;25.60;;
1585;SDS011;786;48.718;9.514;2023-03-03T06:05:04;41.15;;;24.00;;
1585;SDS011;786;48.718;9.514;2023-03-03T06:07:31;36.65;;;23.48;;
1585;SDS011;786;48.718;9.514;2023-03-03T06:09:59;43.65;;;26.35;;
1585;SDS011;786;48.718;9.514;2023-03-03T06:12:25;42.65;;;24.50;;
1585;SDS011;786;48.718;9.514;2023-03-03T06:14:52;41.10;;;22.30;;
1585;SDS011;786;48.718;9.514;2023-03-03T06:17:18;38.80;;;23.00;;
1585;SDS011;786;48.718;9.514;2023-03-03T06:19:46;41.15;;;24.00;;
1585;SDS011;786;48.718;9.514;2023-03-03T06:22:12;46.05;;;24.15;;
1585;SDS011;786;48.718;9.514;2023-03-03T06:24:38;37.30;;;21.90;;
1585;SDS011;786;48.718;9.514;2023-03-03T06:27:06;38.55;;;22.48;;
1585;SDS011;786;48.718;9.514;2023-03-03T06:29:34;38.42;;;24.80;;
1585;SDS011;786;48.718;9.514;2023-03-03T06:32:00;42.03;;;25.13;;
1585;SDS011;786;48.718;9.514;2023-03-03T06:34:27;38.75;;;21.58;;
1585;SDS011;786;48.718;9.514;2023-03-03T06:36:53;42.42;;;24.17;;
1585;SDS011;786;48.718;9.514;2023-03-03T06:39:20;41.53;;;23.70;;
1585;SDS011;786;48.718;9.514;2023-03-03T06:41:47;41.33;;;24.25;;
1585;SDS011;786;48.718;9.514;2023-03-03T06:44:15;40.28;;;21.95;;
1585;SDS011;786;48.718;9.514;2023-03-03T06:46:41;41.75;;;22.55;;
1585;SDS011;786;48.718;9.514;2023-03-03T06:49:07;42.25;;;22.13;;
1585;SDS011;786;48.718;9.514;2023-03-03T06:51:34;40.03;;;23.05;;
1585;SDS011;786;48.718;9.514;2023-03-03T06:54:06;36.63;;;21.92;;
1585;SDS011;786;48.718;9.514;2023-03-03T06:56:35;36.80;;;21.10;;
1585;SDS011;786;48.718;9.514;2023-03-03T06:59:04;38.72;;;24.17;;
1585;SDS011;786;48.718;9.514;2023-03-03T07:01:34;39.72;;;24.13;;
1585;SDS011;786;48.718;9.514;2023-03-03T07:04:03;48.08;;;24.90;;
1585;SDS011;786;48.718;9.514;2023-03-03T07:06:36;39.70;;;22.85;;
1585;SDS011;786;48.718;9.514;2023-03-03T07:09:04;40.28;;;23.67;;
1585;SDS011;786;48.718;9.514;2023-03-03T07:11:33;39.03;;;22.50;;
1585;SDS011;786;48.718;9.514;2023-03-03T07:14:01;36.03;;;22.40;;
1585;SDS011;786;48.718;9.514;2023-03-03T07:16:27;37.28;;;23.45;;
1585;SDS011;786;48.718;9.514;2023-03-03T07:18:55;45.20;;;25.30;;
1585;SDS011;786;48.718;9.514;2023-03-03T07:21:29;39.78;;;24.58;;
1585;SDS011;786;48.718;9.514;2023-03-03T07:23:57;42.63;;;24.52;;
1585;SDS011;786;48.718;9.514;2023-03-03T07:26:25;43.08;;;24.55;;
1585;SDS011;786;48.718;9.514;2023-03-03T07:28:55;42.10;;;23.63;;
1585;SDS011;786;48.718;9.514;2023-03-03T07:31:25;41.33;;;23.83;;
1585;SDS011;786;48.718;9.514;2023-03-03T07:33:54;38.17;;;23.15;;
1585;SDS011;786;48.718;9.514;2023-03-03T07:36:24;39.83;;;24.48;;
1585;SDS011;786;48.718;9.514;2023-03-03T07:38:52;41.97;;;25.90;;
1585;SDS011;786;48.718;9.514;2023-03-03T07:41:20;42.70;;;25.60;;
1585;SDS011;786;48.718;9.514;2023-03-03T07:43:48;44.78;;;24.63;;
1585;SDS011;786;48.718;9.514;2023-03-03T07:46:24;40.38;;;24.35;;
1585;SDS011;786;48.718;9.514;2023-03-03T07:48:57;41.50;;;24.33;;
1585;SDS011;786;48.718;9.514;2023-03-03T07:51:24;40.45;;;25.45;;
1585;SDS011;786;48.718;9.514;2023-03-03T07:53:53;44.15;;;24.88;;
1585;SDS011;786;48.718;9.514;2023-03-03T07:56:26;38.97;;;23.65;;
1585;SDS011;786;48.718;9.514;2023-03-03T07:58:54;42.20;;;25.05;;
1585;SDS011;786;48.718;9.514;2023-03-03T08:01:31;40.45;;;24.48;;
1585;SDS011;786;48.718;9.514;2023-03-03T08:04:16;38.13;;;23.98;;
1585;SDS011;786;48.718;9.514;2023-03-03T08:06:49;41.00;;;24.50;;
1585;SDS011;786;48.718;9.514;2023-03-03T08:11:56;34.58;;;21.95;;
1585;SDS011;786;48.718;9.514;2023-03-03T08:14:25;42.08;;;26.23;;
1585;SDS011;786;48.718;9.514;2023-03-03T08:16:53;62.63;;;35.72;;
1585;SDS011;786;48.718;9.514;2023-03-03T08:19:22;44.70;;;27.77;;
1585;SDS011;786;48.718;9.514;2023-03-03T08:21:48;43.40;;;25.95;;
1585;SDS011;786;48.718;9.514;2023-03-03T08:24:15;43.85;;;25.17;;
1585;SDS011;786;48.718;9.514;2023-03-03T08:26:41;41.38;;;27.05;;
1585;SDS011;786;48.718;9.514;2023-03-03T08:29:09;41.53;;;27.63;;
1585;SDS011;786;48.718;9.514;2023-03-03T08:31:36;41.80;;;25.02;;
1585;SDS011;786;48.718;9.514;2023-03-03T08:34:02;42.17;;;28.27;;
1585;SDS011;786;48.718;9.514;2023-03-03T08:36:30;39.60;;;25.05;;
1585;SDS011;786;48.718;9.514;2023-03-03T08:38:57;35.95;;;22.15;;
1585;SDS011;786;48.718;9.514;2023-03-03T08:41:23;35.67;;;23.58;;
1585;SDS011;786;48.718;9.514;2023-03-03T08:43:50;35.45;;;24.92;;
1585;SDS011;786;48.718;9.514;2023-03-03T08:46:16;35.85;;;23.92;;
1585;SDS011;786;48.718;9.514;2023-03-03T08:48:42;32.85;;;23.27;;
1585;SDS011;786;48.718;9.514;2023-03-03T08:51:09;31.55;;;22.55;;
1585;SDS011;786;48.718;9.514;2023-03-03T08:53:36;35.65;;;23.92;;
1585;SDS011;786;48.718;9.514;2023-03-03T08:56:04;32.67;;;22.90;;
1585;SDS011;786;48.718;9.514;2023-03-03T08:58:30;35.20;;;24.67;;
1585;SDS011;786;48.718;9.514;2023-03-03T09:00:57;30.75;;;23.10;;
1585;SDS011;786;48.718;9.514;2023-03-03T09:03:23;33.10;;;23.35;;
1585;SDS011;786;48.718;9.514;2023-03-03T09:05:50;33.78;;;23.05;;
1585;SDS011;786;48.718;9.514;2023-03-03T09:08:17;30.90;;;22.67;;
1585;SDS011;786;48.718;9.514;2023-03-03T09:10:44;32.75;;;24.63;;
1585;SDS011;786;48.718;9.514;2023-03-03T09:13:13;33.10;;;24.30;;
1585;SDS011;786;48.718;9.514;2023-03-03T09:15:40;32.85;;;24.10;;
1585;SDS011;786;48.718;9.514;2023-03-03T09:18:12;31.25;;;22.80;;
1585;SDS011;786;48.718;9.514;2023-03-03T09:20:41;32.97;;;22.30;;
1585;SDS011;786;48.718;9.514;2023-03-03T09:23:23;28.80;;;21.05;;
1585;SDS011;786;48.718;9.514;2023-03-03T09:25:57;31.88;;;21.95;;
1585;SDS011;786;48.718;9.514;2023-03-03T09:28:25;34.83;;;24.02;;
1585;SDS011;786;48.718;9.514;2023-03-03T09:30:53;40.55;;;24.20;;
1585;SDS011;786;48.718;9.514;2023-03-03T09:33:24;32.22;;;22.88;;
1585;SDS011;786;48.718;9.514;2023-03-03T09:35:53;31.02;;;21.67;;
1585;SDS011;786;48.718;9.514;2023-03-03T09:38:24;32.72;;;22.10;;
1585;SDS011;786;48.718;9.514;2023-03-03T09:40:55;35.40;;;24.02;;
1585;SDS011;786;48.718;9.514;2023-03-03T09:43:35;29.30;;;22.15;;
1585;SDS011;786;48.718;9.514;2023-03-03T09:46:03;33.42;;;24.27;;
1585;SDS011;786;48.718;9.514;2023-03-03T09:48:41;30.35;;;21.92;;
1585;SDS011;786;48.718;9.514;2023-03-03T09:51:30;30.70;;;23.38;;
1585;SDS011;786;48.718;9.514;2023-03-03T09:54:08;34.45;;;25.80;;
1585;SDS011;786;48.718;9.514;2023-03-03T09:56:42;35.00;;;26.08;;
1585;SDS011;786;48.718;9.514;2023-03-03T09:59:15;34.70;;;26.05;;
1585;SDS011;786;48.718;9.514;2023-03-03T10:01:55;34.05;;;26.23;;
1585;SDS011;786;48.718;9.514;2023-03-03T10:07:35;32.67;;;24.40;;
1585;SDS011;786;48.718;9.514;2023-03-03T10:10:11;31.85;;;26.02;;
1585;SDS011;786;48.718;9.514;2023-03-03T10:12:50;33.25;;;26.52;;
1585;SDS011;786;48.718;9.514;2023-03-03T10:17:53;36.83;;;28.00;;
1585;SDS011;786;48.718;9.514;2023-03-03T10:20:36;34.60;;;26.10;;
1585;SDS011;786;48.718;9.514;2023-03-03T10:23:09;36.35;;;26.60;;
1585;SDS011;786;48.718;9.514;2023-03-03T10:25:46;35.92;;;29.15;;
1585;SDS011;786;48.718;9.514;2023-03-03T10:28:22;38.30;;;28.45;;
1585;SDS011;786;48.718;9.514;2023-03-03T10:30:56;34.53;;;26.35;;
1585;SDS011;786;48.718;9.514;2023-03-03T10:33:29;34.63;;;26.15;;
1585;SDS011;786;48.718;9.514;2023-03-03T10:36:05;33.90;;;25.92;;
1585;SDS011;786;48.718;9.514;2023-03-03T10:38:44;36.80;;;27.83;;
1585;SDS011;786;48.718;9.514;2023-03-03T10:41:18;37.60;;;28.67;;
1585;SDS011;786;48.718;9.514;2023-03-03T10:44:01;35.55;;;26.73;;
1585;SDS011;786;48.718;9.514;2023-03-03T10:46:58;32.78;;;25.92;;
1585;SDS011;786;48.718;9.514;2023-03-03T10:49:32;34.55;;;26.58;;
1585;SDS011;786;48.718;9.514;2023-03-03T10:55:02;37.13;;;29.80;;
1585;SDS011;786;48.718;9.514;2023-03-03T10:57:41;34.42;;;29.25;;
1585;SDS011;786;48.718;9.514;2023-03-03T11:00:15;36.72;;;26.92;;
1585;SDS011;786;48.718;9.514;2023-03-03T11:02:50;37.10;;;29.27;;
1585;SDS011;786;48.718;9.514;2023-03-03T11:05:28;34.22;;;28.65;;
1585;SDS011;786;48.718;9.514;2023-03-03T11:07:59;38.42;;;32.25;;
1585;SDS011;786;48.718;9.514;2023-03-03T11:10:29;34.15;;;29.45;;
1585;SDS011;786;48.718;9.514;2023-03-03T11:13:06;36.65;;;28.95;;
1585;SDS011;786;48.718;9.514;2023-03-03T11:15:43;32.08;;;27.52;;
1585;SDS011;786;48.718;9.514;2023-03-03T11:18:18;32.38;;;28.42;;
1585;SDS011;786;48.718;9.514;2023-03-03T11:20:51;34.20;;;29.58;;
1585;SDS011;786;48.718;9.514;2023-03-03T11:26:15;31.83;;;28.05;;
1585;SDS011;786;48.718;9.514;2023-03-03T11:28:58;38.75;;;28.70;;
1585;SDS011;786;48.718;9.514;2023-03-03T11:31:34;35.17;;;29.98;;
1585;SDS011;786;48.718;9.514;2023-03-03T11:34:05;34.90;;;29.85;;
1585;SDS011;786;48.718;9.514;2023-03-03T11:36:41;34.33;;;29.70;;
1585;SDS011;786;48.718;9.514;2023-03-03T11:39:10;37.25;;;29.83;;
1585;SDS011;786;48.718;9.514;2023-03-03T11:41:39;34.63;;;28.88;;
1585;SDS011;786;48.718;9.514;2023-03-03T11:44:09;39.28;;;30.55;;
1585;SDS011;786;48.718;9.514;2023-03-03T11:46:44;35.08;;;29.70;;
1585;SDS011;786;48.718;9.514;2023-03-03T11:49:13;39.38;;;32.25;;
1585;SDS011;786;48.718;9.514;2023-03-03T11:51:46;36.75;;;31.85;;
1585;SDS011;786;48.718;9.514;2023-03-03T11:54:17;34.80;;;28.42;;
1585;SDS011;786;48.718;9.514;2023-03-03T11:56:46;39.33;;;29.10;;
1585;SDS011;786;48.718;9.514;2023-03-03T11:59:17;39.58;;;29.65;;
1585;SDS011;786;48.718;9.514;2023-03-03T12:01:51;33.95;;;26.58;;
1585;SDS011;786;48.718;9.514;2023-03-03T12:04:20;35.40;;;28.42;;
1585;SDS011;786;48.718;9.514;2023-03-03T12:06:52;37.28;;;28.92;;
1585;SDS011;786;48.718;9.514;2023-03-03T12:09:32;33.00;;;28.17;;
1585;SDS011;786;48.718;9.514;2023-03-03T12:12:05;38.63;;;29.02;;
1585;SDS011;786;48.718;9.514;2023-03-03T12:14:39;39.08;;;30.45;;
1585;SDS011;786;48.718;9.514;2023-03-03T12:17:27;34.88;;;27.80;;
1585;SDS011;786;48.718;9.514;2023-03-03T12:20:02;38.60;;;29.95;;
1585;SDS011;786;48.718;9.514;2023-03-03T12:22:33;34.42;;;28.45;;
1585;SDS011;786;48.718;9.514;2023-03-03T12:25:08;34.03;;;28.02;;
1585;SDS011;786;48.718;9.514;2023-03-03T12:27:42;35.03;;;28.60;;
1585;SDS011;786;48.718;9.514;2023-03-03T12:30:13;38.00;;;29.52;;
1585;SDS011;786;48.718;9.514;2023-03-03T12:32:57;33.85;;;25.95;;
1585;SDS011;786;48.718;9.514;2023-03-03T12:35:33;37.67;;;31.15;;
1585;SDS011;786;48.718;9.514;2023-03-03T12:38:04;36.67;;;30.05;;
1585;SDS011;786;48.718;9.514;2023-03-03T12:40:37;36.83;;;27.48;;
1585;SDS011;786;48.718;9.514;2023-03-03T12:43:13;37.53;;;30.95;;
1585;SDS011;786;48.718;9.514;2023-03-03T12:45:46;38.92;;;31.15;;
1585;SDS011;786;48.718;9.514;2023-03-03T12:48:20;36.70;;;31.33;;
1585;SDS011;786;48.718;9.514;2023-03-03T12:50:51;36.35;;;28.58;;
1585;SDS011;786;48.718;9.514;2023-03-03T12:53:24;37.25;;;30.08;;
1585;SDS011;786;48.718;9.514;2023-03-03T12:55:57;37.30;;;26.88;;
1585;SDS011;786;48.718;9.514;2023-03-03T12:58:30;37.38;;;28.10;;
1585;SDS011;786;48.718;9.514;2023-03-03T13:01:05;40.60;;;31.65;;
1585;SDS011;786;48.718;9.514;2023-03-03T13:03:39;36.65;;;29.42;;
1585;SDS011;786;48.718;9.514;2023-03-03T13:06:10;35.90;;;27.60;;
1585;SDS011;786;48.718;9.514;2023-03-03T13:08:47;36.95;;;27.02;;
1585;SDS011;786;48.718;9.514;2023-03-03T13:11:23;31.98;;;25.10;;
1585;SDS011;786;48.718;9.514;2023-03-03T13:13:56;35.85;;;27.08;;
1585;SDS011;786;48.718;9.514;2023-03-03T13:16:25;35.83;;;27.52;;
1585;SDS011;786;48.718;9.514;2023-03-03T13:18:56;38.08;;;27.65;;
1585;SDS011;786;48.718;9.514;2023-03-03T13:21:25;36.40;;;27.90;;
1585;SDS011;786;48.718;9.514;2023-03-03T13:26:24;35.25;;;26.00;;
1585;SDS011;786;48.718;9.514;2023-03-03T13:28:55;36.30;;;26.88;;
1585;SDS011;786;48.718;9.514;2023-03-03T13:31:26;33.35;;;24.38;;
1585;SDS011;786;48.718;9.514;2023-03-03T13:33:57;34.05;;;26.35;;
1585;SDS011;786;48.718;9.514;2023-03-03T13:36:25;38.00;;;28.48;;
1585;SDS011;786;48.718;9.514;2023-03-03T13:38:56;35.85;;;26.52;;
1585;SDS011;786;48.718;9.514;2023-03-03T13:41:25;35.88;;;25.38;;
1585;SDS011;786;48.718;9.514;2023-03-03T13:43:54;38.50;;;28.13;;
1585;SDS011;786;48.718;9.514;2023-03-03T13:46:26;37.97;;;27.02;;
1585;SDS011;786;48.718;9.514;2023-03-03T13:49:09;35.13;;;27.30;;
1585;SDS011;786;48.718;9.514;2023-03-03T13:51:50;37.25;;;25.42;;
1585;SDS011;786;48.718;9.514;2023-03-03T13:54:35;35.42;;;24.88;;
1585;SDS011;786;48.718;9.514;2023-03-03T13:57:11;37.47;;;28.40;;
1585;SDS011;786;48.718;9.514;2023-03-03T13:59:47;37.35;;;26.08;;
1585;SDS011;786;48.718;9.514;2023-03-03T14:02:24;37.42;;;25.88;;
1585;SDS011;786;48.718;9.514;2023-03-03T14:05:05;40.45;;;27.42;;
1585;SDS011;786;48.718;9.514;2023-03-03T14:07:37;37.45;;;24.92;;
1585;SDS011;786;48.718;9.514;2023-03-03T14:10:07;36.30;;;24.67;;
1585;SDS011;786;48.718;9.514;2023-03-03T14:12:40;35.10;;;25.10;;
1585;SDS011;786;48.718;9.514;2023-03-03T14:15:15;40.50;;;28.83;;
1585;SDS011;786;48.718;9.514;2023-03-03T14:17:50;37.88;;;26.95;;
1585;SDS011;786;48.718;9.514;2023-03-03T14:20:25;38.95;;;27.88;;
1585;SDS011;786;48.718;9.514;2023-03-03T14:22:53;37.08;;;24.17;;
1585;SDS011;786;48.718;9.514;2023-03-03T14:25:22;34.08;;;24.05;;
1585;SDS011;786;48.718;9.514;2023-03-03T14:27:53;31.95;;;21.55;;
1585;SDS011;786;48.718;9.514;2023-03-03T14:30:27;38.85;;;30.50;;
1585;SDS011;786;48.718;9.514;2023-03-03T14:32:59;32.25;;;22.45;;
1585;SDS011;786;48.718;9.514;2023-03-03T14:36:02;40.88;;;28.60;;
1585;SDS011;786;48.718;9.514;2023-03-03T14:41:12;44.95;;;31.33;;
1585;SDS011;786;48.718;9.514;2023-03-03T14:43:43;39.53;;;26.67;;
1585;SDS011;786;48.718;9.514;2023-03-03T14:46:19;40.28;;;28.10;;
1585;SDS011;786;48.718;9.514;2023-03-03T14:48:56;35.67;;;26.48;;
1585;SDS011;786;48.718;9.514;2023-03-03T14:51:25;30.00;;;21.77;;
1585;SDS011;786;48.718;9.514;2023-03-03T14:53:53;37.40;;;25.83;;
1585;SDS011;786;48.718;9.514;2023-03-03T14:56:21;31.67;;;22.73;;
1585;SDS011;786;48.718;9.514;2023-03-03T14:58:49;32.80;;;23.15;;
1585;SDS011;786;48.718;9.514;2023-03-03T15:01:24;27.40;;;21.33;;
1585;SDS011;786;48.718;9.514;2023-03-03T15:03:59;32.60;;;23.38;;
1585;SDS011;786;48.718;9.514;2023-03-03T15:06:28;34.08;;;25.88;;
1585;SDS011;786;48.718;9.514;2023-03-03T15:08:59;30.65;;;23.75;;
1585;SDS011;786;48.718;9.514;2023-03-03T15:11:45;29.13;;;20.67;;
1585;SDS011;786;48.718;9.514;2023-03-03T15:14:17;31.00;;;20.60;;
1585;SDS011;786;48.718;9.514;2023-03-03T15:16:45;30.25;;;20.90;;
1585;SDS011;786;48.718;9.514;2023-03-03T15:19:14;29.10;;;22.45;;
1585;SDS011;786;48.718;9.514;2023-03-03T15:21:55;29.15;;;20.20;;
1585;SDS011;786;48.718;9.514;2023-03-03T15:24:26;29.27;;;21.23;;
1585;SDS011;786;48.718;9.514;2023-03-03T15:26:58;48.80;;;29.35;;
1585;SDS011;786;48.718;9.514;2023-03-03T15:29:28;34.30;;;25.08;;
1585;SDS011;786;48.718;9.514;2023-03-03T15:31:59;32.17;;;21.52;;
1585;SDS011;786;48.718;9.514;2023-03-03T15:34:34;35.38;;;24.30;;
1585;SDS011;786;48.718;9.514;2023-03-03T15:37:07;33.65;;;22.80;;